sensor_id;sensor_type;location;lat;lon;timestamp;P1;durP1;ratioP1;P2;durP2;ratioP2
45522;SDS011;31254;51.680;5.394;2022-09-17T00:01:26;11.35;;;1.80;;
45522;SDS011;31254;51.680;5.394;2022-09-17T00:03:55;10.93;;;1.73;;
45522;SDS011;31254;51.680;5.394;2022-09-17T00:06:24;8.55;;;1.52;;
45522;SDS011;31254;51.680;5.394;2022-09-17T00:08:51;8.23;;;1.50;;
45522;SDS011;31254;51.680;5.394;2022-09-17T00:11:27;10.07;;;1.90;;
45522;SDS011;31254;51.680;5.394;2022-09-17T00:13:56;7.10;;;1.83;;
45522;SDS011;31254;51.680;5.394;2022-09-17T00:16:35;14.27;;;1.60;;
45522;SDS011;31254;51.680;5.394;2022-09-17T00:19:04;8.70;;;1.20;;
45522;SDS011;31254;51.680;5.394;2022-09-17T00:21:35;6.97;;;1.25;;
45522;SDS011;31254;51.680;5.394;2022-09-17T00:24:03;9.48;;;1.30;;
45522;SDS011;31254;51.680;5.394;2022-09-17T00:26:34;6.50;;;1.38;;
45522;SDS011;31254;51.680;5.394;2022-09-17T00:29:02;15.68;;;1.98;;
45522;SDS011;31254;51.680;5.394;2022-09-17T00:31:30;9.57;;;1.33;;
45522;SDS011;31254;51.680;5.394;2022-09-17T00:33:57;6.80;;;1.25;;
45522;SDS011;31254;51.680;5.394;2022-09-17T00:36:24;9.38;;;1.73;;
45522;SDS011;31254;51.680;5.394;2022-09-17T00:38:52;16.98;;;1.67;;
45522;SDS011;31254;51.680;5.394;2022-09-17T00:41:23;10.02;;;1.65;;
45522;SDS011;31254;51.680;5.394;2022-09-17T00:43:53;10.13;;;1.20;;
45522;SDS011;31254;51.680;5.394;2022-09-17T00:48:58;11.25;;;1.33;;
45522;SDS011;31254;51.680;5.394;2022-09-17T00:51:33;11.63;;;1.42;;
45522;SDS011;31254;51.680;5.394;2022-09-17T00:54:07;20.63;;;1.73;;
45522;SDS011;31254;51.680;5.394;2022-09-17T00:56:36;12.68;;;1.50;;
45522;SDS011;31254;51.680;5.394;2022-09-17T00:59:08;8.30;;;1.42;;
45522;SDS011;31254;51.680;5.394;2022-09-17T01:01:35;10.65;;;1.38;;
45522;SDS011;31254;51.680;5.394;2022-09-17T01:04:03;11.82;;;1.70;;
45522;SDS011;31254;51.680;5.394;2022-09-17T01:06:45;13.32;;;1.38;;
45522;SDS011;31254;51.680;5.394;2022-09-17T01:09:42;9.77;;;1.27;;
45522;SDS011;31254;51.680;5.394;2022-09-17T01:17:31;7.72;;;1.58;;
45522;SDS011;31254;51.680;5.394;2022-09-17T01:31:51;9.30;;;1.33;;
45522;SDS011;31254;51.680;5.394;2022-09-17T01:34:29;6.47;;;1.17;;
45522;SDS011;31254;51.680;5.394;2022-09-17T01:37:33;9.55;;;1.45;;
45522;SDS011;31254;51.680;5.394;2022-09-17T01:40:16;10.68;;;1.25;;
45522;SDS011;31254;51.680;5.394;2022-09-17T01:42:52;10.65;;;1.50;;
45522;SDS011;31254;51.680;5.394;2022-09-17T01:45:45;8.98;;;1.42;;
45522;SDS011;31254;51.680;5.394;2022-09-17T01:50:46;7.70;;;1.08;;
45522;SDS011;31254;51.680;5.394;2022-09-17T01:53:14;11.35;;;2.15;;
45522;SDS011;31254;51.680;5.394;2022-09-17T01:55:46;11.43;;;1.50;;
45522;SDS011;31254;51.680;5.394;2022-09-17T01:58:19;8.75;;;1.08;;
45522;SDS011;31254;51.680;5.394;2022-09-17T02:00:53;9.32;;;1.10;;
45522;SDS011;31254;51.680;5.394;2022-09-17T02:03:27;12.52;;;1.58;;
45522;SDS011;31254;51.680;5.394;2022-09-17T02:06:01;7.60;;;1.35;;
45522;SDS011;31254;51.680;5.394;2022-09-17T02:11:22;9.77;;;1.10;;
45522;SDS011;31254;51.680;5.394;2022-09-17T02:14:08;9.63;;;1.00;;
45522;SDS011;31254;51.680;5.394;2022-09-17T02:16:48;11.13;;;1.27;;
45522;SDS011;31254;51.680;5.394;2022-09-17T02:19:29;6.57;;;0.95;;
45522;SDS011;31254;51.680;5.394;2022-09-17T02:22:22;6.95;;;1.00;;
45522;SDS011;31254;51.680;5.394;2022-09-17T02:30:17;5.90;;;1.00;;
45522;SDS011;31254;51.680;5.394;2022-09-17T02:32:44;7.95;;;1.08;;
45522;SDS011;31254;51.680;5.394;2022-09-17T02:35:11;8.80;;;1.20;;
45522;SDS011;31254;51.680;5.394;2022-09-17T02:37:42;7.82;;;1.30;;
45522;SDS011;31254;51.680;5.394;2022-09-17T02:40:09;6.95;;;0.95;;
45522;SDS011;31254;51.680;5.394;2022-09-17T02:42:51;10.40;;;1.30;;
45522;SDS011;31254;51.680;5.394;2022-09-17T02:45:48;8.82;;;1.15;;
45522;SDS011;31254;51.680;5.394;2022-09-17T02:51:08;10.77;;;1.58;;
45522;SDS011;31254;51.680;5.394;2022-09-17T02:53:52;10.50;;;1.48;;
45522;SDS011;31254;51.680;5.394;2022-09-17T02:59:11;9.88;;;1.40;;
45522;SDS011;31254;51.680;5.394;2022-09-17T03:01:49;8.88;;;1.20;;
45522;SDS011;31254;51.680;5.394;2022-09-17T03:04:21;7.35;;;1.10;;
45522;SDS011;31254;51.680;5.394;2022-09-17T03:06:51;8.13;;;1.40;;
45522;SDS011;31254;51.680;5.394;2022-09-17T03:09:19;8.27;;;1.13;;
45522;SDS011;31254;51.680;5.394;2022-09-17T03:11:45;7.38;;;1.70;;
45522;SDS011;31254;51.680;5.394;2022-09-17T03:14:12;6.30;;;1.08;;
45522;SDS011;31254;51.680;5.394;2022-09-17T03:16:38;6.88;;;1.08;;
45522;SDS011;31254;51.680;5.394;2022-09-17T03:19:05;7.50;;;1.40;;
45522;SDS011;31254;51.680;5.394;2022-09-17T03:21:31;14.00;;;1.15;;
45522;SDS011;31254;51.680;5.394;2022-09-17T03:24:00;11.13;;;1.27;;
45522;SDS011;31254;51.680;5.394;2022-09-17T03:26:27;11.02;;;1.23;;
45522;SDS011;31254;51.680;5.394;2022-09-17T03:28:53;11.93;;;1.50;;
45522;SDS011;31254;51.680;5.394;2022-09-17T03:31:20;7.88;;;1.45;;
45522;SDS011;31254;51.680;5.394;2022-09-17T03:33:46;6.78;;;1.52;;
45522;SDS011;31254;51.680;5.394;2022-09-17T03:36:13;6.35;;;0.90;;
45522;SDS011;31254;51.680;5.394;2022-09-17T03:38:40;10.55;;;1.30;;
45522;SDS011;31254;51.680;5.394;2022-09-17T03:41:06;12.30;;;1.50;;
45522;SDS011;31254;51.680;5.394;2022-09-17T03:43:33;10.63;;;1.83;;
45522;SDS011;31254;51.680;5.394;2022-09-17T03:46:00;11.35;;;1.25;;
45522;SDS011;31254;51.680;5.394;2022-09-17T03:48:27;6.82;;;1.30;;
45522;SDS011;31254;51.680;5.394;2022-09-17T03:50:54;11.23;;;1.60;;
45522;SDS011;31254;51.680;5.394;2022-09-17T03:53:23;10.75;;;1.50;;
45522;SDS011;31254;51.680;5.394;2022-09-17T03:55:52;7.03;;;1.17;;
45522;SDS011;31254;51.680;5.394;2022-09-17T03:58:22;12.02;;;1.33;;
45522;SDS011;31254;51.680;5.394;2022-09-17T04:00:49;10.35;;;1.17;;
45522;SDS011;31254;51.680;5.394;2022-09-17T04:03:19;8.40;;;1.38;;
45522;SDS011;31254;51.680;5.394;2022-09-17T04:05:49;10.02;;;1.45;;
45522;SDS011;31254;51.680;5.394;2022-09-17T04:08:16;9.48;;;1.13;;
45522;SDS011;31254;51.680;5.394;2022-09-17T04:10:43;8.68;;;0.95;;
45522;SDS011;31254;51.680;5.394;2022-09-17T04:13:11;13.85;;;1.30;;
45522;SDS011;31254;51.680;5.394;2022-09-17T04:15:38;9.52;;;1.35;;
45522;SDS011;31254;51.680;5.394;2022-09-17T04:18:05;10.57;;;1.30;;
45522;SDS011;31254;51.680;5.394;2022-09-17T04:20:31;6.70;;;1.35;;
45522;SDS011;31254;51.680;5.394;2022-09-17T04:23:00;9.40;;;1.00;;
45522;SDS011;31254;51.680;5.394;2022-09-17T04:25:27;12.90;;;1.40;;
45522;SDS011;31254;51.680;5.394;2022-09-17T04:27:53;7.50;;;1.13;;
45522;SDS011;31254;51.680;5.394;2022-09-17T04:30:20;10.55;;;1.50;;
45522;SDS011;31254;51.680;5.394;2022-09-17T04:32:46;8.93;;;1.50;;
45522;SDS011;31254;51.680;5.394;2022-09-17T04:35:13;4.90;;;0.82;;
45522;SDS011;31254;51.680;5.394;2022-09-17T04:37:40;9.10;;;1.10;;
45522;SDS011;31254;51.680;5.394;2022-09-17T04:40:06;7.70;;;1.20;;
45522;SDS011;31254;51.680;5.394;2022-09-17T04:42:34;10.57;;;1.35;;
45522;SDS011;31254;51.680;5.394;2022-09-17T04:45:00;14.88;;;1.35;;
45522;SDS011;31254;51.680;5.394;2022-09-17T04:47:27;8.45;;;1.10;;
45522;SDS011;31254;51.680;5.394;2022-09-17T04:49:53;10.18;;;1.10;;
45522;SDS011;31254;51.680;5.394;2022-09-17T04:52:20;10.77;;;1.40;;
45522;SDS011;31254;51.680;5.394;2022-09-17T04:54:55;8.40;;;1.05;;
45522;SDS011;31254;51.680;5.394;2022-09-17T04:57:21;10.10;;;1.40;;
45522;SDS011;31254;51.680;5.394;2022-09-17T04:59:50;6.40;;;1.20;;
45522;SDS011;31254;51.680;5.394;2022-09-17T05:02:22;5.78;;;1.13;;
45522;SDS011;31254;51.680;5.394;2022-09-17T05:04:51;7.85;;;1.05;;
45522;SDS011;31254;51.680;5.394;2022-09-17T05:07:17;9.38;;;1.60;;
45522;SDS011;31254;51.680;5.394;2022-09-17T05:09:46;9.75;;;1.50;;
45522;SDS011;31254;51.680;5.394;2022-09-17T05:12:13;7.63;;;1.10;;
45522;SDS011;31254;51.680;5.394;2022-09-17T05:14:39;9.38;;;1.40;;
45522;SDS011;31254;51.680;5.394;2022-09-17T05:17:06;6.60;;;1.27;;
45522;SDS011;31254;51.680;5.394;2022-09-17T05:19:35;14.75;;;1.17;;
45522;SDS011;31254;51.680;5.394;2022-09-17T05:22:01;13.52;;;1.27;;
45522;SDS011;31254;51.680;5.394;2022-09-17T05:24:28;4.90;;;0.80;;
45522;SDS011;31254;51.680;5.394;2022-09-17T05:26:55;9.75;;;1.30;;
45522;SDS011;31254;51.680;5.394;2022-09-17T05:29:24;9.23;;;1.13;;
45522;SDS011;31254;51.680;5.394;2022-09-17T05:31:50;12.95;;;1.52;;
45522;SDS011;31254;51.680;5.394;2022-09-17T05:34:17;4.75;;;0.85;;
45522;SDS011;31254;51.680;5.394;2022-09-17T05:36:46;10.35;;;1.38;;
45522;SDS011;31254;51.680;5.394;2022-09-17T05:39:12;9.63;;;1.10;;
45522;SDS011;31254;51.680;5.394;2022-09-17T05:41:44;16.40;;;1.70;;
45522;SDS011;31254;51.680;5.394;2022-09-17T05:44:14;13.50;;;1.13;;
45522;SDS011;31254;51.680;5.394;2022-09-17T05:46:44;14.82;;;1.38;;
45522;SDS011;31254;51.680;5.394;2022-09-17T05:49:18;8.20;;;1.02;;
45522;SDS011;31254;51.680;5.394;2022-09-17T05:51:45;13.48;;;1.30;;
45522;SDS011;31254;51.680;5.394;2022-09-17T05:54:11;7.00;;;1.20;;
45522;SDS011;31254;51.680;5.394;2022-09-17T05:56:40;15.73;;;2.30;;
45522;SDS011;31254;51.680;5.394;2022-09-17T05:59:09;11.35;;;1.33;;
45522;SDS011;31254;51.680;5.394;2022-09-17T06:01:35;10.57;;;1.38;;
45522;SDS011;31254;51.680;5.394;2022-09-17T06:04:02;12.30;;;1.50;;
45522;SDS011;31254;51.680;5.394;2022-09-17T06:06:29;8.90;;;1.13;;
45522;SDS011;31254;51.680;5.394;2022-09-17T06:08:59;4.95;;;1.08;;
45522;SDS011;31254;51.680;5.394;2022-09-17T06:11:28;5.47;;;1.00;;
45522;SDS011;31254;51.680;5.394;2022-09-17T06:13:55;6.15;;;1.23;;
45522;SDS011;31254;51.680;5.394;2022-09-17T06:16:22;3.72;;;0.65;;
45522;SDS011;31254;51.680;5.394;2022-09-17T06:18:52;4.80;;;0.55;;
45522;SDS011;31254;51.680;5.394;2022-09-17T06:21:19;5.95;;;1.02;;
45522;SDS011;31254;51.680;5.394;2022-09-17T06:23:51;5.20;;;0.70;;
45522;SDS011;31254;51.680;5.394;2022-09-17T06:26:20;7.95;;;0.80;;
45522;SDS011;31254;51.680;5.394;2022-09-17T06:28:48;5.65;;;0.60;;
45522;SDS011;31254;51.680;5.394;2022-09-17T06:31:18;3.55;;;0.45;;
45522;SDS011;31254;51.680;5.394;2022-09-17T06:33:47;3.63;;;0.70;;
45522;SDS011;31254;51.680;5.394;2022-09-17T06:36:19;3.15;;;0.50;;
45522;SDS011;31254;51.680;5.394;2022-09-17T06:38:51;4.90;;;0.60;;
45522;SDS011;31254;51.680;5.394;2022-09-17T06:41:40;3.85;;;0.73;;
45522;SDS011;31254;51.680;5.394;2022-09-17T06:44:09;1.35;;;0.50;;
45522;SDS011;31254;51.680;5.394;2022-09-17T06:46:39;3.50;;;0.50;;
45522;SDS011;31254;51.680;5.394;2022-09-17T06:49:07;5.47;;;0.68;;
45522;SDS011;31254;51.680;5.394;2022-09-17T06:51:37;6.75;;;0.65;;
45522;SDS011;31254;51.680;5.394;2022-09-17T06:54:06;4.35;;;0.80;;
45522;SDS011;31254;51.680;5.394;2022-09-17T06:56:34;4.03;;;1.02;;
45522;SDS011;31254;51.680;5.394;2022-09-17T06:59:02;5.50;;;0.52;;
45522;SDS011;31254;51.680;5.394;2022-09-17T07:01:31;2.13;;;0.47;;
45522;SDS011;31254;51.680;5.394;2022-09-17T07:04:10;2.10;;;0.55;;
45522;SDS011;31254;51.680;5.394;2022-09-17T07:06:37;1.48;;;0.60;;
45522;SDS011;31254;51.680;5.394;2022-09-17T07:09:04;6.10;;;0.50;;
45522;SDS011;31254;51.680;5.394;2022-09-17T07:11:36;1.77;;;0.40;;
45522;SDS011;31254;51.680;5.394;2022-09-17T07:14:08;6.53;;;0.73;;
45522;SDS011;31254;51.680;5.394;2022-09-17T07:16:35;4.32;;;0.55;;
45522;SDS011;31254;51.680;5.394;2022-09-17T07:19:04;4.22;;;0.95;;
45522;SDS011;31254;51.680;5.394;2022-09-17T07:21:31;3.45;;;0.50;;
45522;SDS011;31254;51.680;5.394;2022-09-17T07:23:57;4.70;;;0.70;;
45522;SDS011;31254;51.680;5.394;2022-09-17T07:26:24;9.90;;;1.02;;
45522;SDS011;31254;51.680;5.394;2022-09-17T07:28:51;5.15;;;1.05;;
45522;SDS011;31254;51.680;5.394;2022-09-17T07:31:17;4.15;;;0.93;;
45522;SDS011;31254;51.680;5.394;2022-09-17T07:33:44;5.90;;;0.93;;
45522;SDS011;31254;51.680;5.394;2022-09-17T07:36:11;7.40;;;0.82;;
45522;SDS011;31254;51.680;5.394;2022-09-17T07:38:42;4.38;;;0.52;;
45522;SDS011;31254;51.680;5.394;2022-09-17T07:41:13;5.88;;;0.80;;
45522;SDS011;31254;51.680;5.394;2022-09-17T07:43:43;5.68;;;0.77;;
45522;SDS011;31254;51.680;5.394;2022-09-17T07:46:17;6.47;;;1.60;;
45522;SDS011;31254;51.680;5.394;2022-09-17T07:48:46;7.25;;;1.00;;
45522;SDS011;31254;51.680;5.394;2022-09-17T07:51:19;5.18;;;0.63;;
45522;SDS011;31254;51.680;5.394;2022-09-17T07:53:51;9.52;;;0.93;;
45522;SDS011;31254;51.680;5.394;2022-09-17T07:56:19;8.25;;;0.80;;
45522;SDS011;31254;51.680;5.394;2022-09-17T07:58:48;5.70;;;0.93;;
45522;SDS011;31254;51.680;5.394;2022-09-17T08:01:16;6.00;;;0.70;;
45522;SDS011;31254;51.680;5.394;2022-09-17T08:03:46;7.05;;;0.85;;
45522;SDS011;31254;51.680;5.394;2022-09-17T08:06:16;1.88;;;0.70;;
45522;SDS011;31254;51.680;5.394;2022-09-17T08:08:45;6.70;;;0.77;;
45522;SDS011;31254;51.680;5.394;2022-09-17T08:11:16;4.00;;;0.50;;
45522;SDS011;31254;51.680;5.394;2022-09-17T08:14:04;6.00;;;0.88;;
45522;SDS011;31254;51.680;5.394;2022-09-17T08:16:31;6.22;;;0.63;;
45522;SDS011;31254;51.680;5.394;2022-09-17T08:18:57;5.90;;;0.85;;
45522;SDS011;31254;51.680;5.394;2022-09-17T08:21:24;5.40;;;0.70;;
45522;SDS011;31254;51.680;5.394;2022-09-17T08:23:50;3.38;;;0.60;;
45522;SDS011;31254;51.680;5.394;2022-09-17T08:26:20;5.07;;;1.00;;
45522;SDS011;31254;51.680;5.394;2022-09-17T08:28:48;7.13;;;0.80;;
45522;SDS011;31254;51.680;5.394;2022-09-17T08:31:19;5.10;;;0.63;;
45522;SDS011;31254;51.680;5.394;2022-09-17T08:33:47;7.70;;;0.98;;
45522;SDS011;31254;51.680;5.394;2022-09-17T08:36:15;6.35;;;0.70;;
45522;SDS011;31254;51.680;5.394;2022-09-17T08:38:44;6.60;;;0.55;;
45522;SDS011;31254;51.680;5.394;2022-09-17T08:43:57;6.38;;;0.93;;
45522;SDS011;31254;51.680;5.394;2022-09-17T08:46:51;6.40;;;0.70;;
45522;SDS011;31254;51.680;5.394;2022-09-17T08:49:55;9.70;;;1.40;;
45522;SDS011;31254;51.680;5.394;2022-09-17T08:55:58;3.70;;;0.60;;
45522;SDS011;31254;51.680;5.394;2022-09-17T09:01:26;4.38;;;0.55;;
45522;SDS011;31254;51.680;5.394;2022-09-17T09:04:03;5.70;;;0.90;;
45522;SDS011;31254;51.680;5.394;2022-09-17T09:06:52;3.08;;;0.68;;
45522;SDS011;31254;51.680;5.394;2022-09-17T09:09:27;6.50;;;0.77;;
45522;SDS011;31254;51.680;5.394;2022-09-17T09:12:02;3.45;;;0.52;;
45522;SDS011;31254;51.680;5.394;2022-09-17T09:14:35;5.80;;;0.60;;
45522;SDS011;31254;51.680;5.394;2022-09-17T09:17:14;2.65;;;0.30;;
45522;SDS011;31254;51.680;5.394;2022-09-17T09:19:44;1.73;;;0.50;;
45522;SDS011;31254;51.680;5.394;2022-09-17T09:22:21;3.10;;;0.55;;
45522;SDS011;31254;51.680;5.394;2022-09-17T09:30:59;3.75;;;0.60;;
45522;SDS011;31254;51.680;5.394;2022-09-17T09:33:48;3.25;;;0.65;;
45522;SDS011;31254;51.680;5.394;2022-09-17T09:36:19;2.80;;;0.45;;
45522;SDS011;31254;51.680;5.394;2022-09-17T09:38:57;4.53;;;0.47;;
45522;SDS011;31254;51.680;5.394;2022-09-17T09:41:33;4.47;;;0.60;;
45522;SDS011;31254;51.680;5.394;2022-09-17T09:44:09;6.25;;;0.47;;
45522;SDS011;31254;51.680;5.394;2022-09-17T09:46:50;4.63;;;0.70;;
45522;SDS011;31254;51.680;5.394;2022-09-17T09:57:57;3.33;;;0.63;;
45522;SDS011;31254;51.680;5.394;2022-09-17T10:00:37;4.38;;;0.88;;
45522;SDS011;31254;51.680;5.394;2022-09-17T10:05:34;4.18;;;0.73;;
45522;SDS011;31254;51.680;5.394;2022-09-17T10:08:12;4.07;;;0.65;;
45522;SDS011;31254;51.680;5.394;2022-09-17T10:10:53;5.07;;;0.80;;
45522;SDS011;31254;51.680;5.394;2022-09-17T10:13:21;7.80;;;0.77;;
45522;SDS011;31254;51.680;5.394;2022-09-17T10:15:48;8.27;;;0.85;;
45522;SDS011;31254;51.680;5.394;2022-09-17T10:18:19;4.32;;;1.10;;
45522;SDS011;31254;51.680;5.394;2022-09-17T10:20:57;2.55;;;0.50;;
45522;SDS011;31254;51.680;5.394;2022-09-17T10:23:29;5.80;;;0.80;;
45522;SDS011;31254;51.680;5.394;2022-09-17T10:26:02;13.32;;;0.80;;
45522;SDS011;31254;51.680;5.394;2022-09-17T10:28:31;3.53;;;0.65;;
45522;SDS011;31254;51.680;5.394;2022-09-17T10:31:05;3.65;;;0.50;;
45522;SDS011;31254;51.680;5.394;2022-09-17T10:33:49;6.22;;;0.73;;
45522;SDS011;31254;51.680;5.394;2022-09-17T10:36:16;7.20;;;0.70;;
45522;SDS011;31254;51.680;5.394;2022-09-17T10:44:29;4.05;;;0.68;;
45522;SDS011;31254;51.680;5.394;2022-09-17T10:49:54;4.10;;;0.65;;
45522;SDS011;31254;51.680;5.394;2022-09-17T10:53:13;8.30;;;0.90;;
45522;SDS011;31254;51.680;5.394;2022-09-17T10:58:10;3.05;;;0.60;;
45522;SDS011;31254;51.680;5.394;2022-09-17T11:14:55;1.60;;;0.40;;
45522;SDS011;31254;51.680;5.394;2022-09-17T11:17:30;2.80;;;0.50;;
45522;SDS011;31254;51.680;5.394;2022-09-17T11:25:54;3.35;;;0.52;;
45522;SDS011;31254;51.680;5.394;2022-09-17T11:31:35;5.15;;;0.60;;
45522;SDS011;31254;51.680;5.394;2022-09-17T11:34:19;4.63;;;0.55;;
45522;SDS011;31254;51.680;5.394;2022-09-17T11:37:01;9.23;;;0.80;;
45522;SDS011;31254;51.680;5.394;2022-09-17T11:39:49;3.63;;;0.52;;
45522;SDS011;31254;51.680;5.394;2022-09-17T11:43:06;4.85;;;0.57;;
45522;SDS011;31254;51.680;5.394;2022-09-17T11:45:29;4.63;;;0.55;;
45522;SDS011;31254;51.680;5.394;2022-09-17T11:50:52;4.45;;;0.50;;
45522;SDS011;31254;51.680;5.394;2022-09-17T11:59:13;4.93;;;0.80;;
45522;SDS011;31254;51.680;5.394;2022-09-17T12:01:50;5.22;;;0.65;;
45522;SDS011;31254;51.680;5.394;2022-09-17T12:04:28;6.78;;;0.82;;
45522;SDS011;31254;51.680;5.394;2022-09-17T12:09:56;6.25;;;0.80;;
45522;SDS011;31254;51.680;5.394;2022-09-17T12:12:28;8.30;;;0.90;;
45522;SDS011;31254;51.680;5.394;2022-09-17T12:15:19;3.83;;;1.00;;
45522;SDS011;31254;51.680;5.394;2022-09-17T12:21:00;7.60;;;0.95;;
45522;SDS011;31254;51.680;5.394;2022-09-17T12:23:38;7.28;;;2.70;;
45522;SDS011;31254;51.680;5.394;2022-09-17T12:29:20;5.53;;;1.13;;
45522;SDS011;31254;51.680;5.394;2022-09-17T12:34:22;11.43;;;0.93;;
45522;SDS011;31254;51.680;5.394;2022-09-17T12:37:03;6.32;;;1.15;;
45522;SDS011;31254;51.680;5.394;2022-09-17T12:42:37;11.32;;;1.05;;
45522;SDS011;31254;51.680;5.394;2022-09-17T12:48:01;4.85;;;1.17;;
45522;SDS011;31254;51.680;5.394;2022-09-17T12:51:19;5.53;;;1.05;;
45522;SDS011;31254;51.680;5.394;2022-09-17T12:53:53;7.22;;;1.00;;
45522;SDS011;31254;51.680;5.394;2022-09-17T12:59:17;8.85;;;0.82;;
45522;SDS011;31254;51.680;5.394;2022-09-17T13:01:56;6.60;;;1.17;;
45522;SDS011;31254;51.680;5.394;2022-09-17T13:05:20;5.63;;;0.77;;
45522;SDS011;31254;51.680;5.394;2022-09-17T13:10:02;7.07;;;1.10;;
45522;SDS011;31254;51.680;5.394;2022-09-17T13:12:55;15.05;;;1.00;;
45522;SDS011;31254;51.680;5.394;2022-09-17T13:21:03;6.07;;;0.88;;
45522;SDS011;31254;51.680;5.394;2022-09-17T13:23:40;4.47;;;0.85;;
45522;SDS011;31254;51.680;5.394;2022-09-17T13:26:12;6.47;;;0.77;;
45522;SDS011;31254;51.680;5.394;2022-09-17T13:28:43;7.65;;;1.27;;
45522;SDS011;31254;51.680;5.394;2022-09-17T13:31:20;9.48;;;1.05;;
45522;SDS011;31254;51.680;5.394;2022-09-17T13:39:08;3.15;;;0.80;;
45522;SDS011;31254;51.680;5.394;2022-09-17T13:41:38;13.25;;;1.55;;
45522;SDS011;31254;51.680;5.394;2022-09-17T13:44:07;9.75;;;1.60;;
45522;SDS011;31254;51.680;5.394;2022-09-17T13:46:36;8.27;;;1.30;;
45522;SDS011;31254;51.680;5.394;2022-09-17T13:49:13;9.25;;;1.63;;
45522;SDS011;31254;51.680;5.394;2022-09-17T13:51:42;12.15;;;1.52;;
45522;SDS011;31254;51.680;5.394;2022-09-17T13:54:14;9.25;;;1.30;;
45522;SDS011;31254;51.680;5.394;2022-09-17T13:56:47;8.00;;;1.30;;
45522;SDS011;31254;51.680;5.394;2022-09-17T13:59:21;9.82;;;1.17;;
45522;SDS011;31254;51.680;5.394;2022-09-17T14:01:56;7.45;;;1.45;;
45522;SDS011;31254;51.680;5.394;2022-09-17T14:21:10;13.50;;;1.35;;
45522;SDS011;31254;51.680;5.394;2022-09-17T14:23:44;10.07;;;1.02;;
45522;SDS011;31254;51.680;5.394;2022-09-17T14:31:59;8.70;;;0.90;;
45522;SDS011;31254;51.680;5.394;2022-09-17T14:34:25;8.82;;;1.40;;
45522;SDS011;31254;51.680;5.394;2022-09-17T14:36:53;9.82;;;1.30;;
45522;SDS011;31254;51.680;5.394;2022-09-17T14:39:21;10.07;;;1.27;;
45522;SDS011;31254;51.680;5.394;2022-09-17T14:41:50;9.15;;;1.30;;
45522;SDS011;31254;51.680;5.394;2022-09-17T14:44:21;14.77;;;1.52;;
45522;SDS011;31254;51.680;5.394;2022-09-17T14:46:53;4.25;;;1.10;;
45522;SDS011;31254;51.680;5.394;2022-09-17T14:49:26;8.07;;;0.80;;
45522;SDS011;31254;51.680;5.394;2022-09-17T14:51:59;9.60;;;1.05;;
45522;SDS011;31254;51.680;5.394;2022-09-17T14:54:27;7.38;;;1.13;;
45522;SDS011;31254;51.680;5.394;2022-09-17T14:57:02;11.07;;;1.20;;
45522;SDS011;31254;51.680;5.394;2022-09-17T14:59:57;9.40;;;1.10;;
45522;SDS011;31254;51.680;5.394;2022-09-17T15:02:31;12.88;;;1.38;;
45522;SDS011;31254;51.680;5.394;2022-09-17T15:07:47;9.20;;;0.90;;
45522;SDS011;31254;51.680;5.394;2022-09-17T15:10:17;9.80;;;0.90;;
45522;SDS011;31254;51.680;5.394;2022-09-17T15:12:45;3.92;;;0.73;;
45522;SDS011;31254;51.680;5.394;2022-09-17T15:15:18;5.70;;;1.00;;
45522;SDS011;31254;51.680;5.394;2022-09-17T15:17:46;5.05;;;0.88;;
45522;SDS011;31254;51.680;5.394;2022-09-17T15:20:38;8.50;;;1.10;;
45522;SDS011;31254;51.680;5.394;2022-09-17T15:25:44;3.63;;;0.50;;
45522;SDS011;31254;51.680;5.394;2022-09-17T15:30:55;5.25;;;1.02;;
45522;SDS011;31254;51.680;5.394;2022-09-17T15:33:31;6.53;;;0.90;;
45522;SDS011;31254;51.680;5.394;2022-09-17T15:38:28;11.48;;;1.10;;
45522;SDS011;31254;51.680;5.394;2022-09-17T15:43:46;11.88;;;1.20;;
45522;SDS011;31254;51.680;5.394;2022-09-17T15:46:28;9.00;;;1.20;;
45522;SDS011;31254;51.680;5.394;2022-09-17T15:49:00;8.75;;;1.85;;
45522;SDS011;31254;51.680;5.394;2022-09-17T15:51:28;9.30;;;1.63;;
45522;SDS011;31254;51.680;5.394;2022-09-17T15:53:58;13.18;;;1.30;;
45522;SDS011;31254;51.680;5.394;2022-09-17T15:56:31;9.43;;;1.23;;
45522;SDS011;31254;51.680;5.394;2022-09-17T15:59:02;9.73;;;2.33;;
45522;SDS011;31254;51.680;5.394;2022-09-17T16:01:50;11.23;;;2.22;;
45522;SDS011;31254;51.680;5.394;2022-09-17T16:04:21;6.47;;;0.88;;
45522;SDS011;31254;51.680;5.394;2022-09-17T16:12:13;5.15;;;1.02;;
45522;SDS011;31254;51.680;5.394;2022-09-17T16:14:47;7.82;;;1.27;;
45522;SDS011;31254;51.680;5.394;2022-09-17T16:17:21;7.32;;;1.38;;
45522;SDS011;31254;51.680;5.394;2022-09-17T16:19:49;6.45;;;1.10;;
45522;SDS011;31254;51.680;5.394;2022-09-17T16:22:16;8.52;;;1.30;;
45522;SDS011;31254;51.680;5.394;2022-09-17T16:24:43;5.72;;;0.90;;
45522;SDS011;31254;51.680;5.394;2022-09-17T16:27:11;7.32;;;1.20;;
45522;SDS011;31254;51.680;5.394;2022-09-17T16:29:43;9.48;;;0.93;;
45522;SDS011;31254;51.680;5.394;2022-09-17T16:32:12;6.10;;;1.30;;
45522;SDS011;31254;51.680;5.394;2022-09-17T16:34:39;9.70;;;1.20;;
45522;SDS011;31254;51.680;5.394;2022-09-17T16:37:08;6.93;;;1.13;;
45522;SDS011;31254;51.680;5.394;2022-09-17T16:39:36;6.70;;;1.30;;
45522;SDS011;31254;51.680;5.394;2022-09-17T16:42:05;9.02;;;1.02;;
45522;SDS011;31254;51.680;5.394;2022-09-17T16:44:32;4.22;;;0.90;;
45522;SDS011;31254;51.680;5.394;2022-09-17T16:46:59;7.30;;;1.25;;
45522;SDS011;31254;51.680;5.394;2022-09-17T16:49:31;12.40;;;1.30;;
45522;SDS011;31254;51.680;5.394;2022-09-17T16:51:57;4.97;;;0.93;;
45522;SDS011;31254;51.680;5.394;2022-09-17T16:54:24;5.47;;;1.08;;
45522;SDS011;31254;51.680;5.394;2022-09-17T16:56:51;9.35;;;1.17;;
45522;SDS011;31254;51.680;5.394;2022-09-17T16:59:17;7.53;;;1.10;;
45522;SDS011;31254;51.680;5.394;2022-09-17T17:01:44;6.00;;;1.00;;
45522;SDS011;31254;51.680;5.394;2022-09-17T17:04:13;6.75;;;1.05;;
45522;SDS011;31254;51.680;5.394;2022-09-17T17:06:40;11.50;;;2.10;;
45522;SDS011;31254;51.680;5.394;2022-09-17T17:09:07;10.43;;;1.23;;
45522;SDS011;31254;51.680;5.394;2022-09-17T17:11:34;10.25;;;1.27;;
45522;SDS011;31254;51.680;5.394;2022-09-17T17:14:00;5.55;;;0.98;;
45522;SDS011;31254;51.680;5.394;2022-09-17T17:16:30;3.95;;;0.90;;
45522;SDS011;31254;51.680;5.394;2022-09-17T17:18:57;3.85;;;1.10;;
45522;SDS011;31254;51.680;5.394;2022-09-17T17:21:24;2.90;;;0.70;;
45522;SDS011;31254;51.680;5.394;2022-09-17T17:23:50;4.72;;;0.60;;
45522;SDS011;31254;51.680;5.394;2022-09-17T17:26:17;4.75;;;0.68;;
45522;SDS011;31254;51.680;5.394;2022-09-17T17:28:44;4.13;;;0.95;;
45522;SDS011;31254;51.680;5.394;2022-09-17T17:31:11;4.63;;;0.70;;
45522;SDS011;31254;51.680;5.394;2022-09-17T17:33:38;3.15;;;0.63;;
45522;SDS011;31254;51.680;5.394;2022-09-17T17:36:05;3.40;;;0.75;;
45522;SDS011;31254;51.680;5.394;2022-09-17T17:38:34;7.07;;;0.70;;
45522;SDS011;31254;51.680;5.394;2022-09-17T17:41:07;7.65;;;0.93;;
45522;SDS011;31254;51.680;5.394;2022-09-17T17:43:35;4.15;;;0.60;;
45522;SDS011;31254;51.680;5.394;2022-09-17T17:46:06;6.55;;;0.75;;
45522;SDS011;31254;51.680;5.394;2022-09-17T17:48:34;5.43;;;1.02;;
45522;SDS011;31254;51.680;5.394;2022-09-17T17:51:02;4.82;;;0.80;;
45522;SDS011;31254;51.680;5.394;2022-09-17T17:53:31;4.00;;;0.80;;
45522;SDS011;31254;51.680;5.394;2022-09-17T17:55:59;5.63;;;0.88;;
45522;SDS011;31254;51.680;5.394;2022-09-17T17:58:26;8.95;;;1.10;;
45522;SDS011;31254;51.680;5.394;2022-09-17T18:00:56;6.47;;;0.95;;
45522;SDS011;31254;51.680;5.394;2022-09-17T18:03:23;5.47;;;1.10;;
45522;SDS011;31254;51.680;5.394;2022-09-17T18:05:56;3.83;;;0.75;;
45522;SDS011;31254;51.680;5.394;2022-09-17T18:08:25;7.72;;;1.30;;
45522;SDS011;31254;51.680;5.394;2022-09-17T18:10:53;5.22;;;1.02;;
45522;SDS011;31254;51.680;5.394;2022-09-17T18:13:21;4.50;;;0.90;;